createdAt,value
2023-04-12T00:06:50.553Z,8.93
2023-04-12T00:16:53.914Z,8.85
2023-04-12T00:26:58.291Z,8.79
2023-04-12T00:37:01.639Z,8.72
2023-04-12T00:47:07.050Z,8.63
2023-04-12T00:57:11.002Z,8.78
2023-04-12T01:07:26.579Z,8.74
2023-04-12T01:17:32.222Z,8.73
2023-04-12T01:27:43.371Z,8.78
2023-04-12T01:37:47.101Z,8.77
2023-04-12T01:47:54.417Z,8.73
2023-04-12T01:57:58.885Z,8.69
2023-04-12T02:08:04.735Z,8.75
2023-04-12T02:18:07.803Z,8.64
2023-04-12T02:28:12.134Z,8.71
2023-04-12T02:38:16.932Z,8.72
2023-04-12T02:48:21.826Z,8.67
2023-04-12T02:58:28.235Z,8.65
2023-04-12T03:08:32.668Z,8.66
2023-04-12T03:18:35.948Z,8.70
2023-04-12T03:28:41.286Z,8.55
2023-04-12T03:38:44.261Z,8.63
2023-04-12T03:48:50.825Z,8.46
2023-04-12T03:58:54.586Z,8.53
2023-04-12T04:08:59.842Z,8.46
2023-04-12T04:19:04.216Z,8.37
2023-04-12T04:29:08.684Z,8.38
2023-04-12T04:39:15.411Z,8.40
2023-04-12T04:49:21.884Z,8.49
2023-04-12T04:59:25.084Z,8.47
2023-04-12T05:09:34.312Z,8.53
2023-04-12T05:19:37.395Z,8.62
2023-04-12T05:29:42.054Z,8.68
2023-04-12T05:39:46.073Z,8.64
2023-04-12T05:49:53.179Z,8.69
2023-04-12T05:59:56.333Z,8.78
2023-04-12T06:10:01.036Z,8.81
2023-04-12T06:20:06.154Z,9.01
2023-04-12T06:30:12.030Z,8.97
2023-04-12T06:40:15.801Z,8.97
2023-04-12T06:50:20.208Z,9.15
2023-04-12T07:00:23.816Z,9.36
2023-04-12T07:10:28.252Z,9.50
2023-04-12T07:20:31.204Z,9.51
2023-04-12T07:30:35.906Z,9.65
2023-04-12T07:40:39.221Z,9.94
2023-04-12T07:50:43.870Z,10.17
2023-04-12T08:00:47.979Z,10.08
2023-04-12T08:10:53.229Z,10.22
2023-04-12T08:20:56.262Z,10.28
2023-04-12T08:31:01.087Z,10.34
2023-04-12T08:41:05.619Z,10.81
2023-04-12T08:51:14.333Z,11.02
2023-04-12T09:01:19.096Z,11.50
2023-04-12T09:11:28.741Z,12.06
2023-04-12T09:21:32.952Z,12.15
2023-04-12T09:31:37.376Z,13.30
2023-04-12T09:41:40.571Z,12.81
2023-04-12T09:51:52.405Z,13.28
2023-04-12T10:01:56.005Z,13.02
2023-04-12T10:12:03.238Z,12.74
2023-04-12T10:22:06.480Z,12.57
2023-04-12T10:32:24.089Z,12.61
2023-04-12T10:42:31.953Z,12.20
2023-04-12T10:52:41.748Z,11.33
2023-04-12T11:03:07.777Z,11.30
2023-04-12T11:13:12.542Z,11.26
2023-04-12T11:23:16.441Z,11.30
2023-04-12T11:33:34.354Z,11.67
2023-04-12T11:43:39.562Z,12.20
2023-04-12T11:53:46.336Z,12.87
2023-04-12T12:03:50.507Z,13.03
2023-04-12T12:13:56.403Z,10.89
2023-04-12T12:23:59.963Z,9.98
2023-04-12T12:34:07.509Z,9.55
2023-04-12T12:44:12.348Z,10.85
2023-04-12T12:54:31.706Z,11.11
2023-04-12T13:04:39.660Z,11.56
2023-04-12T13:14:44.156Z,11.09
2023-04-12T13:24:47.356Z,9.26
2023-04-12T13:34:51.753Z,8.39
2023-04-12T13:44:54.879Z,8.95
2023-04-12T13:54:59.796Z,9.85
2023-04-12T14:05:03.109Z,10.85
2023-04-12T14:15:08.939Z,11.04
2023-04-12T14:25:12.240Z,10.71
2023-04-12T14:35:16.967Z,9.97
2023-04-12T14:45:20.990Z,8.57
2023-04-12T14:55:26.217Z,8.10
2023-04-12T15:05:29.331Z,8.07
2023-04-12T15:15:33.751Z,7.83
2023-04-12T15:25:36.936Z,8.30
2023-04-12T15:35:41.390Z,8.79
2023-04-12T15:45:44.966Z,9.49
2023-04-12T15:55:54.745Z,11.08
2023-04-12T16:05:57.794Z,11.16
2023-04-12T16:16:02.225Z,10.58
2023-04-12T16:26:06.442Z,9.99
2023-04-12T16:36:10.896Z,10.08
2023-04-12T16:46:14.008Z,9.68
2023-04-12T16:56:19.955Z,9.55
2023-04-12T17:06:23.318Z,9.55
2023-04-12T17:16:28.362Z,10.01
2023-04-12T17:26:32.381Z,9.92
2023-04-12T17:36:38.492Z,9.73
2023-04-12T17:46:41.954Z,9.59
2023-04-12T17:56:49.349Z,9.47
2023-04-12T18:06:52.382Z,9.24
2023-04-12T18:16:56.817Z,8.98
2023-04-12T18:27:00.488Z,9.02
2023-04-12T18:37:06.157Z,8.84
2023-04-12T18:47:09.694Z,8.58
2023-04-12T18:57:15.404Z,8.25
2023-04-12T19:07:18.766Z,8.15
2023-04-12T19:17:24.983Z,7.96
2023-04-12T19:27:28.204Z,7.79
2023-04-12T19:37:34.119Z,7.71
2023-04-12T19:47:44.606Z,7.65
2023-04-12T19:57:49.246Z,7.58
2023-04-12T20:07:55.949Z,7.46
2023-04-12T20:18:00.575Z,7.35
2023-04-12T20:28:04.541Z,7.30
2023-04-12T20:38:09.130Z,7.26
2023-04-12T20:48:12.520Z,7.33
2023-04-12T20:58:17.959Z,7.22
2023-04-12T21:08:20.960Z,7.21
2023-04-12T21:18:25.444Z,7.30
2023-04-12T21:28:29.786Z,7.41
2023-04-12T21:38:34.299Z,7.67
2023-04-12T21:48:37.782Z,7.83
2023-04-12T21:58:42.488Z,7.88
2023-04-12T22:08:45.869Z,7.88
2023-04-12T22:18:50.845Z,7.87
2023-04-12T22:28:54.351Z,7.89
2023-04-12T22:38:58.683Z,7.87
2023-04-12T22:49:02.070Z,7.64
2023-04-12T22:59:06.689Z,7.24
2023-04-12T23:09:10.512Z,7.12
2023-04-12T23:19:16.651Z,7.09
2023-04-12T23:29:19.726Z,7.10
2023-04-12T23:39:24.082Z,6.99
2023-04-12T23:49:27.146Z,6.72
2023-04-12T23:59:31.569Z,6.65
